Soap Lake, WA

12:03 PM PDT on July 25, 2016 (GMT -0700)
Ephrata Mike | | Change Station

Elev 1260 ft 47.35 °N, 119.53 °W | Updated 2 minutes ago

Clear
Clear
90.8 °F
Feels Like 88 °F
N
3.0
Wind Variable Wind from WSW
Gusts 5.0 mph

Today
High -- | Low -- °F
--% Chance of Precip.
Yesterday
High -- | Low -- °F
Precip. -- in
Pressure 29.94 in
Visibility 10.0 miles
Clouds Clear
Heat Index 88 °F
Dew Point 51 °F
Humidity 26%
Rainfall 0.00 in
Snow Depth Not available.
5:28 AM 8:39 PM
Waning Gibbous, 63% visible
METAR KEPH 251853Z AUTO 23008KT 200V260 10SM CLR 33/09 A2997 RMK AO2 SLP139 T03280089
Pressure 29.94 in
Visibility 10.0 miles
Clouds Clear
Heat Index 88 °F
Dew Point 51 °F
Humidity 26%
Rainfall 0.00 in
Snow Depth Not available.
5:28 AM 8:39 PM
Waning Gibbous, 63% visible
METAR KEPH 251853Z AUTO 23008KT 200V260 10SM CLR 33/09 A2997 RMK AO2 SLP139 T03280089

10-Day Weather Forecast

Almanac

Astronomy

Jul. 25, 2016 Rise Set
Actual Time
Civil Twilight
Nautical Twilight
Astronomical Twilight
Moon
Length of Visible Light
Length of Day
Tomorrow will be .
, % of the Moon is Illuminated

Today's Extremes

State Highs State Lows

Community

WunderPhotos

Upload Photos

1,927,373 photos uploaded!

WunderBlog® & News

Nearby

Air Quality

  Air Quality AQ Index Pollutant
Not available.

Snow Depth

Station Depth Elevation

Earthquake Activity

City Distance Mag. Time & Date
Minimum magnitude displayed is 2.5.

Coastal Water Temperatures

Place Temperature

Stations

Nearby Weather Stations

Station Location Temp. Windchill Dew Point Humidity Wind Precip. Elev Updated Type
                   

Watches & Warnings

There are currently no watches in effect.